Time;durP1;ratioP1;P1;durP2;ratioP2;P2;SDS_P1;SDS_P2;PMS_P1;PMS_P2;Temp;Humidity;BMP_temperature;BMP_pressure;BME280_temperature;BME280_humidity;BME280_pressure;Samples;Min_cycle;Max_cycle;Signal;HPM_P1;HPM_P2
2022/11/12 00:00:11;;;;;;;2.97;2.67;;;;;;;1.57;100.00;94438.13;2135756;27;20034;-73
2022/11/12 00:01:12;;;;;;;3.92;3.38;;;;;;;1.41;100.00;94438.75;2134836;27;20114;-73
2022/11/12 00:02:13;;;;;;;7.30;3.42;;;;;;;1.41;100.00;94449.28;2135294;27;20030;-73
2022/11/12 00:03:14;;;;;;;3.78;3.42;;;;;;;1.39;100.00;94440.94;2135804;27;20466;-73
2022/11/12 00:04:15;;;;;;;3.55;3.25;;;;;;;1.35;100.00;94437.41;2135701;27;20491;-73
2022/11/12 00:05:16;;;;;;;5.75;3.30;;;;;;;1.31;100.00;94444.41;2135768;27;20067;-73
2022/11/12 00:06:16;;;;;;;4.28;3.88;;;;;;;1.30;100.00;94440.25;2132169;27;20048;-73
2022/11/12 00:07:17;;;;;;;5.03;3.42;;;;;;;1.38;100.00;94436.00;2135610;27;20046;-72
2022/11/12 00:08:19;;;;;;;4.18;3.78;;;;;;;1.45;100.00;94436.25;2135461;27;20027;-73
2022/11/12 00:09:20;;;;;;;3.65;3.10;;;;;;;1.39;100.00;94427.75;2135075;27;20033;-73
2022/11/12 00:10:21;;;;;;;4.18;3.45;;;;;;;1.38;100.00;94431.50;2135773;27;20034;-73
2022/11/12 00:11:22;;;;;;;7.30;4.72;;;;;;;1.35;100.00;94429.50;2133133;27;20587;-73
2022/11/12 00:12:23;;;;;;;3.45;3.15;;;;;;;1.23;100.00;94432.88;2135683;27;20046;-73
2022/11/12 00:13:24;;;;;;;4.85;3.67;;;;;;;1.16;100.00;94435.25;2135451;27;20026;-73
2022/11/12 00:14:25;;;;;;;4.10;3.70;;;;;;;1.15;100.00;94425.81;2135771;27;20053;-73
2022/11/12 00:15:26;;;;;;;4.75;3.30;;;;;;;1.18;100.00;94433.06;2126071;27;20030;-73
2022/11/12 00:16:27;;;;;;;5.10;4.35;;;;;;;1.15;100.00;94432.94;2120298;27;20035;-73
2022/11/12 00:17:28;;;;;;;3.95;3.55;;;;;;;1.07;100.00;94431.94;2123620;27;20027;-73
2022/11/12 00:18:29;;;;;;;4.50;3.92;;;;;;;1.02;100.00;94437.41;2126100;27;20491;-73
2022/11/12 00:19:30;;;;;;;5.60;3.88;;;;;;;1.16;100.00;94434.50;2126307;27;20369;-73
2022/11/12 00:20:31;;;;;;;5.85;3.75;;;;;;;1.07;100.00;94431.94;2126641;27;20334;-73
2022/11/12 00:21:32;;;;;;;3.95;3.55;;;;;;;1.05;100.00;94431.47;2126943;27;20027;-73
2022/11/12 00:22:33;;;;;;;4.00;3.60;;;;;;;1.17;100.00;94433.38;2126371;27;20034;-73
2022/11/12 00:23:34;;;;;;;5.07;4.10;;;;;;;1.11;100.00;94430.19;2126790;27;20023;-73
2022/11/12 00:24:35;;;;;;;4.40;3.67;;;;;;;1.12;100.00;94430.97;2126708;27;20027;-73
2022/11/12 00:25:36;;;;;;;4.30;3.90;;;;;;;1.05;100.00;94436.72;2126233;27;20026;-73
2022/11/12 00:26:38;;;;;;;3.80;3.40;;;;;;;1.02;100.00;94432.13;2126633;27;20477;-73
2022/11/12 00:27:39;;;;;;;3.88;3.53;;;;;;;0.93;100.00;94439.31;2124858;27;20066;-73
2022/11/12 00:28:40;;;;;;;4.57;3.55;;;;;;;0.99;100.00;94430.13;2126911;27;20368;-73
2022/11/12 00:29:41;;;;;;;6.57;3.55;;;;;;;0.88;100.00;94437.66;2126545;27;20472;-73
2022/11/12 00:30:42;;;;;;;4.65;3.75;;;;;;;0.91;100.00;94434.38;2126887;27;20035;-73
2022/11/12 00:31:43;;;;;;;4.47;3.38;;;;;;;0.89;100.00;94430.53;2127151;27;20338;-73
2022/11/12 00:32:44;;;;;;;3.38;3.08;;;;;;;0.94;100.00;94432.97;2125092;27;20058;-73
2022/11/12 00:33:46;;;;;;;3.35;2.90;;;;;;;0.86;100.00;94431.94;2126948;27;20042;-72
2022/11/12 00:34:47;;;;;;;3.95;3.40;;;;;;;0.90;100.00;94432.84;2126654;27;20038;-73
2022/11/12 00:35:48;;;;;;;3.33;2.90;;;;;;;0.88;100.00;94428.97;2126444;27;20692;-73
2022/11/12 00:36:49;;;;;;;3.63;3.33;;;;;;;0.91;100.00;94426.47;2126391;27;20034;-73
2022/11/12 00:37:54;;;;;;;3.40;3.05;;;;;;;0.86;100.00;94431.94;2122464;27;20479;-73
2022/11/12 00:38:56;;;;;;;3.45;3.10;;;;;;;0.93;100.00;94431.44;2126940;27;20030;-73
2022/11/12 00:39:57;;;;;;;4.20;2.80;;;;;;;1.02;100.00;94432.13;2121887;27;20039;-73
2022/11/12 00:40:59;;;;;;;4.38;3.58;;;;;;;0.97;100.00;94435.72;2126804;27;20483;-73
2022/11/12 00:42:00;;;;;;;6.50;2.88;;;;;;;0.94;100.00;94431.09;2127095;27;20609;-73
2022/11/12 00:43:01;;;;;;;2.80;2.60;;;;;;;0.91;100.00;94437.00;2126047;27;20042;-73
2022/11/12 00:44:02;;;;;;;6.47;3.00;;;;;;;0.99;100.00;94427.50;2123316;27;20103;-73
2022/11/12 00:45:03;;;;;;;3.42;3.13;;;;;;;1.08;100.00;94430.81;2125947;27;20095;-73
2022/11/12 00:46:04;;;;;;;2.85;2.60;;;;;;;1.06;100.00;94432.25;2125936;27;20019;-73
2022/11/12 00:47:05;;;;;;;3.10;2.70;;;;;;;0.92;100.00;94435.94;2126772;27;20455;-72
2022/11/12 00:48:06;;;;;;;3.10;2.80;;;;;;;0.86;100.00;94437.19;2124354;27;20054;-73
2022/11/12 00:49:07;;;;;;;4.43;3.13;;;;;;;0.82;100.00;94431.03;2126836;27;20019;-73
2022/11/12 00:50:09;;;;;;;3.50;3.20;;;;;;;0.72;100.00;94434.06;2126697;27;20039;-72
2022/11/12 00:51:10;;;;;;;5.13;3.00;;;;;;;0.70;100.00;94434.38;2126987;27;20015;-73
2022/11/12 00:52:11;;;;;;;5.22;2.70;;;;;;;0.74;100.00;94432.63;2126832;27;20030;-73
2022/11/12 00:53:12;;;;;;;3.13;2.55;;;;;;;0.64;100.00;94440.13;2121146;27;20027;-73
2022/11/12 00:54:13;;;;;;;5.68;2.53;;;;;;;0.67;100.00;94432.38;2126675;27;20102;-73
2022/11/12 00:55:14;;;;;;;3.65;2.53;;;;;;;0.91;100.00;94433.59;2126718;27;20461;-72
2022/11/12 00:56:15;;;;;;;4.82;2.60;;;;;;;0.91;100.00;94439.63;2125451;27;20337;-72
2022/11/12 00:57:16;;;;;;;7.03;2.85;;;;;;;0.83;100.00;94429.94;2126388;27;20019;-73
2022/11/12 00:58:17;;;;;;;2.75;2.45;;;;;;;0.89;100.00;94438.44;2125416;27;20050;-72
2022/11/12 00:59:18;;;;;;;5.55;2.88;;;;;;;1.04;100.00;94432.56;2126745;27;20023;-73
2022/11/12 01:00:19;;;;;;;3.22;2.60;;;;;;;0.87;100.00;94438.72;2126811;27;20455;-72
2022/11/12 01:01:20;;;;;;;3.08;2.78;;;;;;;0.80;100.00;94437.72;2126581;27;20485;-72
2022/11/12 01:02:21;;;;;;;3.25;2.40;;;;;;;0.99;100.00;94436.16;2126774;27;20034;-72
2022/11/12 01:03:22;;;;;;;4.07;2.63;;;;;;;0.85;100.00;94435.66;2122195;27;20772;-73
2022/11/12 01:04:23;;;;;;;3.90;2.90;;;;;;;0.95;100.00;94435.25;2126643;27;20043;-73
2022/11/12 01:05:24;;;;;;;3.38;2.80;;;;;;;0.85;100.00;94435.66;2126806;27;20034;-73
2022/11/12 01:06:25;;;;;;;3.25;2.70;;;;;;;0.98;100.00;94429.38;2130820;27;20107;-73
2022/11/12 01:07:26;;;;;;;3.17;2.63;;;;;;;0.82;100.00;94433.66;2122644;27;20026;-74
2022/11/12 01:08:29;;;;;;;4.72;2.67;;;;;;;0.78;100.00;94440.66;2123916;27;20026;-73
2022/11/12 01:09:29;;;;;;;2.90;2.60;;;;;;;0.80;100.00;94433.22;2128820;27;20058;-74
2022/11/12 01:10:30;;;;;;;5.72;2.80;;;;;;;0.75;100.00;94428.16;2126594;27;20031;-73
2022/11/12 01:11:31;;;;;;;7.80;2.53;;;;;;;0.72;100.00;94431.41;2126451;27;20034;-74
2022/11/12 01:12:32;;;;;;;2.40;2.20;;;;;;;0.65;100.00;94434.53;2125951;27;20160;-74
2022/11/12 01:13:33;;;;;;;3.45;2.67;;;;;;;0.65;100.00;94437.19;2122047;27;20476;-74
2022/11/12 01:14:35;;;;;;;3.05;2.42;;;;;;;0.62;100.00;94437.84;2125866;27;20035;-74
2022/11/12 01:15:40;;;;;;;4.07;2.28;;;;;;;0.62;100.00;94437.84;2126078;27;20496;-74
2022/11/12 01:16:42;;;;;;;3.00;2.67;;;;;;;0.56;100.00;94436.47;2131302;27;20132;-74
2022/11/12 01:17:43;;;;;;;3.08;2.78;;;;;;;0.62;100.00;94434.44;2132314;27;20084;-74
2022/11/12 01:18:45;;;;;;;3.30;2.20;;;;;;;0.61;100.00;94438.91;2131913;27;20027;-74
2022/11/12 01:19:46;;;;;;;4.10;2.40;;;;;;;0.66;100.00;94433.47;2133752;27;20030;-73
2022/11/12 01:20:47;;;;;;;4.40;2.40;;;;;;;0.69;100.00;94440.72;2135228;27;20058;-73
2022/11/12 01:21:48;;;;;;;2.55;2.30;;;;;;;0.58;100.00;94438.78;2134977;27;20034;-73
2022/11/12 01:22:49;;;;;;;2.85;2.55;;;;;;;0.54;100.00;94435.25;2135009;27;20033;-74
2022/11/12 01:23:50;;;;;;;4.18;2.85;;;;;;;0.44;100.00;94441.63;2134390;27;20057;-74
2022/11/12 01:24:51;;;;;;;2.65;2.45;;;;;;;0.50;100.00;94435.88;2135077;27;20026;-74
2022/11/12 01:25:52;;;;;;;2.45;2.25;;;;;;;0.55;100.00;94442.81;2131568;27;20138;-74
2022/11/12 01:26:53;;;;;;;3.13;2.50;;;;;;;0.56;100.00;94430.44;2134551;27;20067;-73
2022/11/12 01:27:54;;;;;;;2.83;2.50;;;;;;;0.48;100.00;94426.75;2134883;27;20476;-74
2022/11/12 01:28:57;;;;;;;4.25;2.67;;;;;;;0.47;100.00;94428.63;2135302;27;20121;-74
2022/11/12 01:29:58;;;;;;;4.28;2.63;;;;;;;0.56;100.00;94430.44;2122109;27;20139;-74
2022/11/12 01:31:35;;;;;;;3.20;2.85;;;;;;;0.49;100.00;94430.97;2122438;27;20034;-74
2022/11/12 01:32:36;;;;;;;8.00;2.67;;;;;;;0.40;100.00;94438.13;2095623;28;20128;-73
2022/11/12 01:33:39;;;;;;;5.30;2.75;;;;;;;0.48;100.00;94434.66;2126267;27;20122;-73
2022/11/12 01:34:40;;;;;;;3.30;2.45;;;;;;;0.49;100.00;94428.31;2131991;27;20793;-73
2022/11/12 01:35:40;;;;;;;9.32;2.67;;;;;;;0.48;100.00;94426.75;2135020;27;20037;-73
2022/11/12 01:36:42;;;;;;;13.68;3.20;;;;;;;0.47;100.00;94420.75;2134663;27;20026;-73
2022/11/12 01:37:43;;;;;;;10.73;2.78;;;;;;;0.62;100.00;94422.06;2135014;27;20357;-73
2022/11/12 01:38:45;;;;;;;18.80;2.80;;;;;;;0.59;100.00;94421.91;2134920;27;20023;-73
2022/11/12 01:39:46;;;;;;;19.00;3.20;;;;;;;0.52;100.00;94425.03;2134226;27;20061;-74
2022/11/12 01:40:47;;;;;;;3.70;2.60;;;;;;;0.48;100.00;94429.41;2134987;27;20463;-73
2022/11/12 01:41:48;;;;;;;5.55;2.65;;;;;;;0.48;100.00;94427.56;2134945;27;20057;-73
2022/11/12 01:42:52;;;;;;;9.70;2.92;;;;;;;0.42;100.00;94422.78;2135058;27;20569;-74
2022/11/12 01:44:13;;;;;;;3.55;2.53;;;;;;;0.43;100.00;94422.47;2130912;27;20109;-73
2022/11/12 01:45:14;;;;;;;13.07;2.83;;;;;;;0.49;100.00;94423.84;2132511;27;20021;-73
2022/11/12 01:46:23;;;;;;;4.53;2.85;;;;;;;0.39;100.00;94415.53;2134747;27;20026;-73
2022/11/12 01:47:31;;;;;;;6.57;2.70;;;;;;;0.50;100.00;94422.75;2132607;27;20018;-73
2022/11/12 01:48:38;;;;;;;4.38;2.85;;;;;;;0.43;100.00;94411.19;2123811;27;20087;-73
2022/11/12 01:50:19;;;;;;;4.97;3.13;;;;;;;0.33;100.00;94409.69;2125751;27;20127;-73
2022/11/12 01:51:24;;;;;;;3.42;2.60;;;;;;;0.52;100.00;94417.16;2130774;27;20026;-73
2022/11/12 01:52:34;;;;;;;5.78;2.60;;;;;;;0.56;100.00;94417.28;2134927;27;20058;-73
2022/11/12 01:53:39;;;;;;;5.95;3.22;;;;;;;0.44;100.00;94415.34;2131821;27;20032;-73
2022/11/12 01:54:42;;;;;;;4.88;3.17;;;;;;;0.25;100.00;94410.50;2134730;27;20038;-73
2022/11/12 01:55:43;;;;;;;4.53;3.22;;;;;;;0.31;100.00;94413.72;2134600;27;20042;-73
2022/11/12 01:56:45;;;;;;;4.47;3.25;;;;;;;0.27;100.00;94397.84;2134309;27;20490;-73
2022/11/12 01:57:52;;;;;;;3.15;2.67;;;;;;;0.30;100.00;94406.91;2134900;27;20412;-72
2022/11/12 01:59:00;;;;;;;6.30;2.90;;;;;;;0.34;100.00;94405.97;2132136;27;20023;-72
2022/11/12 02:00:06;;;;;;;3.53;2.67;;;;;;;0.32;100.00;94408.16;2131279;27;20046;-73
2022/11/12 02:01:07;;;;;;;3.25;2.58;;;;;;;0.23;100.00;94396.91;2127856;27;20038;-73
2022/11/12 02:02:09;;;;;;;8.60;3.13;;;;;;;0.24;100.00;94395.81;2134890;27;20061;-73
2022/11/12 02:03:17;;;;;;;7.00;2.80;;;;;;;0.36;100.00;94403.03;2125477;27;20480;-73
2022/11/12 02:04:19;;;;;;;2.95;2.40;;;;;;;0.28;100.00;94402.00;2126671;27;20019;-72
2022/11/12 02:05:22;;;;;;;6.93;3.10;;;;;;;0.32;100.00;94400.28;2125497;27;20038;-72
2022/11/12 02:06:23;;;;;;;8.63;3.65;;;;;;;0.37;100.00;94394.06;2124475;27;20492;-73
2022/11/12 02:07:25;;;;;;;5.07;2.95;;;;;;;0.43;100.00;94398.03;2134316;27;20022;-73
2022/11/12 02:08:28;;;;;;;6.00;2.60;;;;;;;0.55;100.00;94389.44;2125546;27;20127;-73
2022/11/12 02:09:29;;;;;;;9.13;2.67;;;;;;;0.53;100.00;94397.66;2126475;27;20036;-74
2022/11/12 02:10:30;;;;;;;9.68;2.83;;;;;;;0.41;100.00;94395.72;2134555;27;20488;-73
2022/11/12 02:11:31;;;;;;;7.30;2.70;;;;;;;0.53;100.00;94399.50;2134249;27;20116;-74
2022/11/12 02:13:57;;;;;;;23.58;2.90;;;;;;;0.37;100.00;94392.19;2134577;27;20034;-73
2022/11/12 02:16:42;;;;;;;;;;;;;;;0.42;100.00;94397.25;2145463;27;20547;-74
2022/11/12 02:17:43;;;;;;;9.82;2.60;;;;;;;0.40;100.00;94396.81;2135458;27;19956;-74
2022/11/12 02:18:44;;;;;;;30.23;3.00;;;;;;;0.43;100.00;94398.03;2131876;27;20091;-74
2022/11/12 02:19:46;;;;;;;23.17;2.70;;;;;;;0.41;100.00;94393.09;2124452;27;20024;-74
2022/11/12 02:20:54;;;;;;;47.28;3.20;;;;;;;0.41;100.00;94389.69;2124549;27;20411;-74
2022/11/12 02:21:55;;;;;;;29.17;2.85;;;;;;;0.47;100.00;94394.44;2133299;27;20031;-74
2022/11/12 02:22:56;;;;;;;25.67;2.78;;;;;;;0.55;100.00;94387.59;2133824;27;20034;-75
2022/11/12 02:24:05;;;;;;;30.63;3.10;;;;;;;0.54;100.00;94385.28;2133459;27;20058;-75
2022/11/12 02:25:11;;;;;;;21.50;2.70;;;;;;;0.56;100.00;94386.47;2124427;27;20349;-75
2022/11/12 02:26:12;;;;;;;51.83;3.30;;;;;;;0.40;100.00;94388.94;2126544;27;20030;-75
2022/11/12 02:27:13;;;;;;;55.42;3.17;;;;;;;0.37;100.00;94384.31;2137422;27;20026;-75
2022/11/12 02:28:15;;;;;;;5.03;2.25;;;;;;;0.43;100.00;94380.38;2137877;27;20437;-75
2022/11/12 02:29:16;;;;;;;26.05;2.75;;;;;;;0.35;100.00;94378.59;2133465;27;21462;-75
2022/11/12 02:30:19;;;;;;;22.35;2.97;;;;;;;0.32;100.00;94386.34;2133654;27;20425;-75
2022/11/12 02:31:20;;;;;;;13.00;3.00;;;;;;;0.31;100.00;94380.31;2133401;27;20365;-75
2022/11/12 02:32:21;;;;;;;3.67;2.97;;;;;;;0.25;100.00;94377.09;2132876;27;20079;-75
2022/11/12 02:33:22;;;;;;;3.72;2.97;;;;;;;0.26;100.00;94375.22;2137901;27;20022;-75
2022/11/12 02:34:23;;;;;;;12.55;2.75;;;;;;;0.19;100.00;94377.63;2123989;27;20129;-75
2022/11/12 02:35:23;;;;;;;6.53;2.90;;;;;;;0.20;100.00;94379.16;2124396;27;20034;-75
2022/11/12 02:36:25;;;;;;;6.57;3.00;;;;;;;0.06;100.00;94382.00;2133236;27;20025;-75
2022/11/12 02:37:26;;;;;;;3.92;3.25;;;;;;;0.11;100.00;94381.06;2130079;27;20031;-75
2022/11/12 02:38:27;;;;;;;3.42;3.13;;;;;;;0.04;100.00;94384.16;2133858;27;20030;-75
2022/11/12 02:39:28;;;;;;;5.82;3.60;;;;;;;0.05;100.00;94380.47;2133946;27;20031;-75
2022/11/12 02:40:29;;;;;;;5.28;3.30;;;;;;;0.06;100.00;94387.25;2134362;27;20038;-75
2022/11/12 02:41:30;;;;;;;4.45;3.10;;;;;;;0.06;100.00;94376.75;2133806;27;20061;-75
2022/11/12 02:42:31;;;;;;;3.58;3.22;;;;;;;0.04;100.00;94386.81;2133551;27;20369;-75
2022/11/12 02:43:32;;;;;;;4.05;3.10;;;;;;;-0.01;100.00;94381.72;2136909;27;20018;-75
2022/11/12 02:44:33;;;;;;;3.28;2.70;;;;;;;0.19;100.00;94385.50;2133114;27;20053;-75
2022/11/12 02:45:35;;;;;;;8.00;3.08;;;;;;;0.14;100.00;94383.06;2133726;27;20022;-75
2022/11/12 02:46:36;;;;;;;3.20;2.70;;;;;;;0.04;100.00;94386.81;2133079;27;20038;-76
2022/11/12 02:47:37;;;;;;;3.08;2.78;;;;;;;0.03;100.00;94385.25;2133380;27;20046;-75
2022/11/12 02:48:38;;;;;;;3.63;2.60;;;;;;;0.08;100.00;94382.44;2135164;27;20041;-75
2022/11/12 02:49:39;;;;;;;2.97;2.67;;;;;;;0.02;100.00;94385.59;2133798;27;20053;-75
2022/11/12 02:50:40;;;;;;;3.58;2.40;;;;;;;0.03;100.00;94382.63;2133595;27;20038;-75
2022/11/12 02:51:41;;;;;;;4.88;2.10;;;;;;;0.13;100.00;94384.91;2133868;27;20076;-75
2022/11/12 02:52:42;;;;;;;3.22;2.35;;;;;;;0.16;100.00;94384.25;2133621;27;20200;-75
2022/11/12 02:53:42;;;;;;;2.47;2.28;;;;;;;0.03;100.00;94373.97;2135186;27;20046;-75
2022/11/12 02:54:44;;;;;;;2.60;2.40;;;;;;;0.11;100.00;94378.44;2133147;27;20027;-75
2022/11/12 02:55:45;;;;;;;2.95;2.50;;;;;;;0.21;100.00;94378.06;2124119;27;20394;-75
2022/11/12 02:56:46;;;;;;;4.43;2.00;;;;;;;0.29;100.00;94381.72;2123473;27;20027;-76
2022/11/12 02:57:47;;;;;;;2.63;2.42;;;;;;;0.25;100.00;94379.72;2133290;27;20054;-75
2022/11/12 02:58:48;;;;;;;2.20;2.00;;;;;;;0.20;100.00;94387.81;2137360;27;20026;-75
2022/11/12 02:59:49;;;;;;;2.20;2.00;;;;;;;0.13;100.00;94378.88;2133497;27;20083;-75
2022/11/12 03:00:50;;;;;;;5.72;2.17;;;;;;;0.05;100.00;94380.47;2133429;27;20033;-75
2022/11/12 03:01:51;;;;;;;2.47;2.28;;;;;;;0.09;100.00;94385.84;2124247;27;20023;-75
2022/11/12 03:02:57;;;;;;;4.13;2.42;;;;;;;0.08;100.00;94368.53;2124105;27;20046;-75
2022/11/12 03:03:59;;;;;;;2.55;2.00;;;;;;;0.12;100.00;94374.69;2136867;27;20516;-75
2022/11/12 03:05:00;;;;;;;2.83;2.17;;;;;;;0.19;100.00;94377.63;2133221;27;20581;-75
2022/11/12 03:06:01;;;;;;;2.35;2.10;;;;;;;0.15;100.00;94379.34;2133072;27;20041;-75
2022/11/12 03:07:02;;;;;;;2.28;2.08;;;;;;;0.11;100.00;94375.81;2133138;27;20042;-75
2022/11/12 03:08:08;;;;;;;3.55;2.00;;;;;;;0.11;100.00;94370.53;2133144;27;20087;-75
2022/11/12 03:09:10;;;;;;;2.42;2.17;;;;;;;0.18;100.00;94376.06;2133379;27;20030;-75
2022/11/12 03:10:11;;;;;;;3.80;2.30;;;;;;;0.17;100.00;94372.66;2133330;27;20030;-75
2022/11/12 03:11:15;;;;;;;4.18;1.77;;;;;;;0.14;100.00;94375.94;2133187;27;20093;-74
2022/11/12 03:12:16;;;;;;;2.25;1.90;;;;;;;0.12;100.00;94372.06;2133150;27;20361;-74
2022/11/12 03:13:18;;;;;;;7.88;2.42;;;;;;;0.10;100.00;94363.75;2133269;27;20037;-74
2022/11/12 03:14:19;;;;;;;3.03;2.00;;;;;;;0.17;100.00;94371.88;2134536;27;20101;-74
2022/11/12 03:15:20;;;;;;;4.25;2.00;;;;;;;0.10;100.00;94379.53;2133165;27;20026;-74
2022/11/12 03:16:21;;;;;;;2.20;2.00;;;;;;;0.07;100.00;94377.53;2132407;27;20057;-74
2022/11/12 03:17:22;;;;;;;2.83;2.17;;;;;;;0.08;100.00;94371.94;2131298;27;20093;-73
2022/11/12 03:18:23;;;;;;;3.40;2.10;;;;;;;0.09;100.00;94373.50;2133353;27;20085;-74
2022/11/12 03:19:24;;;;;;;2.58;2.05;;;;;;;0.03;100.00;94371.34;2136595;27;20069;-74
2022/11/12 03:20:25;;;;;;;2.20;2.03;;;;;;;0.05;100.00;94372.59;2133565;27;20086;-74
2022/11/12 03:21:26;;;;;;;2.38;2.17;;;;;;;0.10;100.00;94367.16;2132993;27;20088;-74
2022/11/12 03:22:27;;;;;;;2.15;1.88;;;;;;;0.24;100.00;94372.16;2133222;27;20115;-74
2022/11/12 03:23:28;;;;;;;3.75;1.80;;;;;;;0.09;100.00;94376.13;2133478;27;20518;-74
2022/11/12 03:24:29;;;;;;;2.45;1.98;;;;;;;0.13;100.00;94379.66;2134927;27;20050;-74
2022/11/12 03:25:30;;;;;;;2.05;1.90;;;;;;;0.05;100.00;94371.81;2127456;27;20031;-74
2022/11/12 03:26:31;;;;;;;2.25;1.90;;;;;;;0.09;100.00;94372.69;2122284;27;20119;-74
2022/11/12 03:27:32;;;;;;;1.60;1.50;;;;;;;0.03;100.00;94373.97;2129404;27;20027;-74
2022/11/12 03:28:33;;;;;;;4.07;2.10;;;;;;;0.05;100.00;94374.44;2127467;27;20030;-74
2022/11/12 03:29:35;;;;;;;3.97;2.00;;;;;;;0.08;100.00;94371.16;2128128;27;20110;-73
2022/11/12 03:30:38;;;;;;;2.65;1.98;;;;;;;0.08;100.00;94371.16;2127370;27;20057;-73
2022/11/12 03:31:39;;;;;;;1.73;1.63;;;;;;;0.04;100.00;94365.78;2127438;27;20429;-74
2022/11/12 03:32:40;;;;;;;2.70;2.17;;;;;;;-0.04;100.00;94369.25;2127569;27;20034;-75
2022/11/12 03:33:41;;;;;;;2.13;1.90;;;;;;;-0.14;100.00;94378.22;2127600;27;20111;-75
2022/11/12 03:34:42;;;;;;;2.05;1.73;;;;;;;-0.15;100.00;94374.06;2131579;27;20035;-75
2022/11/12 03:35:43;;;;;;;5.32;1.83;;;;;;;-0.12;100.00;94372.69;2129179;27;20079;-75
2022/11/12 03:36:44;;;;;;;2.40;2.13;;;;;;;-0.10;100.00;94375.75;2126704;27;20030;-74
2022/11/12 03:37:45;;;;;;;1.83;1.70;;;;;;;-0.11;100.00;94368.97;2127434;27;20034;-74
2022/11/12 03:38:46;;;;;;;7.13;1.85;;;;;;;0.01;100.00;94374.31;2127690;27;20080;-74
2022/11/12 03:39:46;;;;;;;2.80;1.70;;;;;;;-0.02;100.00;94367.06;2117926;27;20108;-74
2022/11/12 03:40:48;;;;;;;1.67;1.58;;;;;;;-0.16;100.00;94369.13;2122123;27;20413;-74
2022/11/12 03:41:49;;;;;;;2.30;1.90;;;;;;;-0.24;100.00;94369.94;2127356;27;20042;-74
2022/11/12 03:42:51;;;;;;;2.83;2.03;;;;;;;-0.20;100.00;94365.59;2127340;27;20022;-73
2022/11/12 03:43:52;;;;;;;1.88;1.70;;;;;;;-0.10;100.00;94358.13;2127349;27;20037;-75
2022/11/12 03:44:53;;;;;;;2.25;1.80;;;;;;;-0.17;100.00;94364.97;2127157;27;20483;-74
2022/11/12 03:45:54;;;;;;;2.30;1.85;;;;;;;-0.16;100.00;94361.25;2130553;27;20049;-74
2022/11/12 03:46:55;;;;;;;2.53;2.17;;;;;;;-0.17;100.00;94364.97;2127142;27;20031;-74
2022/11/12 03:47:57;;;;;;;3.40;1.80;;;;;;;-0.10;100.00;94365.22;2129717;27;20027;-74
2022/11/12 03:48:58;;;;;;;3.22;2.13;;;;;;;-0.15;100.00;94366.19;2127212;27;20031;-74
2022/11/12 03:50:00;;;;;;;2.13;1.92;;;;;;;-0.01;100.00;94364.09;2127916;27;20049;-74
2022/11/12 03:51:01;;;;;;;2.42;1.80;;;;;;;-0.12;100.00;94365.56;2131068;27;20396;-74
2022/11/12 03:52:02;;;;;;;4.30;2.05;;;;;;;-0.18;100.00;94363.41;2130792;27;20029;-74
2022/11/12 03:53:03;;;;;;;2.45;1.80;;;;;;;-0.12;100.00;94364.78;2127275;27;20027;-74
2022/11/12 03:54:04;;;;;;;2.47;2.10;;;;;;;-0.15;100.00;94366.19;2123925;27;20080;-74
2022/11/12 03:55:05;;;;;;;5.10;2.08;;;;;;;-0.24;100.00;94365.47;2127462;27;20024;-73
2022/11/12 03:56:07;;;;;;;2.38;2.00;;;;;;;-0.27;100.00;94358.97;2129030;27;20042;-73
2022/11/12 03:57:07;;;;;;;4.68;2.00;;;;;;;-0.22;100.00;94360.69;2127017;27;20026;-73
2022/11/12 03:58:08;;;;;;;2.72;2.10;;;;;;;-0.30;100.00;94364.88;2127273;27;20482;-73
2022/11/12 03:59:09;;;;;;;2.70;2.20;;;;;;;-0.41;100.00;94360.28;2127164;27;20512;-73
2022/11/12 04:00:12;;;;;;;4.63;2.35;;;;;;;-0.43;100.00;94359.84;2127078;27;20462;-72
2022/11/12 04:01:13;;;;;;;2.60;2.03;;;;;;;-0.47;100.00;94351.03;2128963;27;20033;-73
2022/11/12 04:02:14;;;;;;;3.20;2.03;;;;;;;-0.46;100.00;94358.59;2119664;27;20031;-73
2022/11/12 04:03:15;;;;;;;2.85;2.00;;;;;;;-0.53;100.00;94353.06;2116421;27;20137;-73
2022/11/12 04:04:15;;;;;;;2.83;2.05;;;;;;;-0.51;100.00;94353.53;2127069;27;20027;-73
2022/11/12 04:09:21;;;;;;;2.33;2.10;;;;;;;-0.61;100.00;94353.88;2130490;27;20483;-73
2022/11/12 04:10:22;;;;;;;2.72;2.15;;;;;;;-0.57;100.00;94347.69;2127952;27;20026;-73
2022/11/12 04:11:23;;;;;;;3.25;2.00;;;;;;;-0.55;100.00;94348.13;2126503;27;20034;-73
2022/11/12 04:13:46;;;;;;;2.53;2.03;;;;;;;-0.52;100.00;94344.88;2116122;27;20150;-73
2022/11/12 04:14:47;;;;;;;3.30;2.45;;;;;;;-0.54;100.00;94347.03;2119648;27;20043;-73
2022/11/12 04:21:49;;;;;;;3.00;2.00;;;;;;;-0.54;100.00;94348.88;2126589;27;20035;-73
2022/11/12 04:22:33;;;;;;;3.83;2.20;;;;;;;-0.54;100.00;94338.38;2127720;27;20031;-73
2022/11/12 04:23:34;;;;;;;3.10;2.25;;;;;;;-0.59;100.00;94344.59;2130184;27;20380;-74
2022/11/12 04:27:25;;;;;;;3.92;2.08;;;;;;;-0.55;100.00;94335.00;2128002;27;20035;-73
2022/11/12 04:28:26;;;;;;;2.70;1.90;;;;;;;-0.49;100.00;94342.69;2130477;27;20094;-73
2022/11/12 04:30:46;;;;;;;5.10;1.98;;;;;;;-0.50;100.00;94341.94;2127177;27;20720;-73
2022/11/12 04:31:47;;;;;;;2.22;2.03;;;;;;;-0.47;100.00;94337.91;2126871;27;20120;-73
2022/11/12 04:32:55;;;;;;;6.18;2.65;;;;;;;-0.44;100.00;94339.88;2126508;27;20142;-73
2022/11/12 04:34:27;;;;;;;3.15;2.45;;;;;;;-0.49;100.00;94345.31;2126674;27;20031;-73
2022/11/12 04:35:18;;;;;;;2.83;2.15;;;;;;;-0.48;100.00;94338.97;2125568;27;20134;-73
2022/11/12 04:36:18;;;;;;;2.65;2.05;;;;;;;-0.53;100.00;94343.34;2126331;27;20755;-73
2022/11/12 04:37:21;;;;;;;3.40;2.10;;;;;;;-0.52;100.00;94344.88;2126746;27;20034;-73
2022/11/12 04:38:21;;;;;;;2.50;2.30;;;;;;;-0.36;100.00;94339.09;2126505;27;20057;-73
2022/11/12 04:39:23;;;;;;;3.08;2.22;;;;;;;-0.42;100.00;94342.97;2126373;27;20054;-73
2022/11/12 04:45:52;;;;;;;2.58;2.20;;;;;;;-0.41;100.00;94358.41;2126483;27;20424;-73
2022/11/12 04:46:53;;;;;;;5.45;2.50;;;;;;;-0.43;100.00;94357.97;2126310;27;20027;-73
2022/11/12 04:47:54;;;;;;;3.10;2.13;;;;;;;-0.47;100.00;94351.03;2126795;27;20457;-73
2022/11/12 04:48:55;;;;;;;2.00;1.80;;;;;;;-0.39;100.00;94358.88;2126555;27;20079;-73
2022/11/12 04:49:56;;;;;;;3.90;2.25;;;;;;;-0.40;100.00;94351.31;2126364;27;20031;-73
2022/11/12 04:50:59;;;;;;;1.95;1.77;;;;;;;-0.41;100.00;94357.66;2126818;27;20019;-73
2022/11/12 04:52:06;;;;;;;5.13;2.10;;;;;;;-0.43;100.00;94352.72;2113931;28;20104;-73
2022/11/12 04:53:07;;;;;;;3.88;1.98;;;;;;;-0.55;100.00;94360.47;2118467;27;20735;-73
2022/11/12 04:54:09;;;;;;;2.05;1.70;;;;;;;-0.61;100.00;94354.66;2118291;27;20034;-74
2022/11/12 04:55:10;;;;;;;2.75;1.90;;;;;;;-0.58;100.00;94361.88;2115084;27;20061;-74
2022/11/12 04:56:11;;;;;;;2.83;2.10;;;;;;;-0.56;100.00;94364.19;2128400;27;20106;-73
2022/11/12 04:57:12;;;;;;;4.63;2.28;;;;;;;-0.48;100.00;94366.03;2126309;27;20014;-73
2022/11/12 04:58:13;;;;;;;3.45;2.00;;;;;;;-0.49;100.00;94363.69;2126507;27;20152;-73
2022/11/12 04:59:14;;;;;;;5.50;2.00;;;;;;;-0.49;100.00;94368.97;2128450;27;20038;-73
2022/11/12 05:00:15;;;;;;;3.05;1.90;;;;;;;-0.51;100.00;94366.66;2126322;27;20131;-73
2022/11/12 05:01:16;;;;;;;1.95;1.75;;;;;;;-0.39;100.00;94369.41;2126711;27;20035;-74
2022/11/12 05:02:17;;;;;;;2.75;2.00;;;;;;;-0.31;100.00;94367.78;2126688;27;20099;-74
2022/11/12 05:03:18;;;;;;;2.13;1.92;;;;;;;-0.35;100.00;94361.63;2126562;27;20030;-74
2022/11/12 05:04:20;;;;;;;2.15;1.77;;;;;;;-0.39;100.00;94369.41;2126146;27;20037;-74
2022/11/12 05:05:21;;;;;;;4.60;1.83;;;;;;;-0.36;100.00;94371.38;2127223;27;20541;-73
2022/11/12 05:07:42;;;;;;;2.10;1.77;;;;;;;-0.29;100.00;94366.41;2126657;27;20601;-73
2022/11/12 05:08:43;;;;;;;2.53;2.28;;;;;;;-0.34;100.00;94361.34;2126999;27;20117;-74
2022/11/12 05:09:44;;;;;;;2.83;2.13;;;;;;;-0.40;100.00;94362.56;2130420;27;20034;-74
2022/11/12 05:10:45;;;;;;;3.42;1.98;;;;;;;-0.38;100.00;94370.16;2126560;27;20034;-73
2022/11/12 05:11:47;;;;;;;2.90;2.03;;;;;;;-0.38;100.00;94364.91;2126501;27;20031;-73
2022/11/12 05:12:48;;;;;;;2.30;1.92;;;;;;;-0.41;100.00;94363.66;2126523;27;20110;-72
2022/11/12 05:13:49;;;;;;;2.45;1.98;;;;;;;-0.43;100.00;94359.84;2126571;27;20440;-73
2022/11/12 05:14:50;;;;;;;2.08;1.85;;;;;;;-0.43;100.00;94362.47;2126253;27;20342;-73
2022/11/12 05:15:50;;;;;;;2.25;1.67;;;;;;;-0.11;100.00;94359.22;2126860;27;20027;-73